ěÝzenÝ letovÚho provozu ╚eskÚ republiky
Letiste: LKCV Aktualizace: 29.07.2021 10:28:28  UTC
 METAR LKCV 29.07. 10:30 ...
METAR LKCV 291030Z 26014KT 220V290 9999 SCT047 24/11 Q1014 NOSIG RMK BLU BLU=
 TAF LKCV 29.07. 05:00 ...
TAF LKCV 290500Z 2906/3006 15006KT CAVOK      BECMG 2907/2909 26012KT      TEMPO 2909/2915 26018KT      BECMG 2920/2922 VRB02KT=